createdAt,value
2022-07-28T00:00:30.444Z,2.10
2022-07-28T00:05:47.318Z,1.95
2022-07-28T00:10:53.379Z,1.90
2022-07-28T00:15:56.851Z,1.70
2022-07-28T00:21:02.393Z,1.90
2022-07-28T00:26:05.842Z,1.70
2022-07-28T00:31:11.284Z,2.08
2022-07-28T00:36:18.305Z,2.20
2022-07-28T00:41:28.237Z,2.38
2022-07-28T00:46:31.807Z,2.97
2022-07-28T00:51:37.046Z,2.97
2022-07-28T00:56:40.965Z,3.55
2022-07-28T01:01:44.368Z,3.13
2022-07-28T01:07:09.012Z,3.10
2022-07-28T01:12:21.583Z,2.63
2022-07-28T01:17:37.131Z,2.42
2022-07-28T01:22:52.388Z,2.05
2022-07-28T01:28:10.713Z,1.90
2022-07-28T01:33:19.755Z,2.22
2022-07-28T01:38:25.068Z,3.00
2022-07-28T01:43:32.353Z,2.20
2022-07-28T01:48:40.309Z,2.30
2022-07-28T01:53:45.920Z,3.05
2022-07-28T01:58:52.275Z,2.63
2022-07-28T02:03:59.209Z,3.20
2022-07-28T02:09:04.992Z,2.80
2022-07-28T02:14:09.892Z,2.85
2022-07-28T02:19:15.437Z,2.72
2022-07-28T02:24:23.095Z,2.92
2022-07-28T02:29:49.661Z,3.38
2022-07-28T02:34:54.687Z,2.65
2022-07-28T02:40:01.352Z,2.47
2022-07-28T02:45:08.085Z,3.35
2022-07-28T02:50:15.568Z,3.42
2022-07-28T02:55:19.593Z,2.95
2022-07-28T03:00:23.657Z,2.55
2022-07-28T03:05:29.281Z,3.30
2022-07-28T03:16:20.331Z,2.72
2022-07-28T03:21:25.781Z,2.80
2022-07-28T03:26:37.104Z,3.58
2022-07-28T03:31:44.673Z,3.28
2022-07-28T03:36:55.216Z,2.90
2022-07-28T03:42:00.597Z,2.30
2022-07-28T03:47:03.980Z,2.40
2022-07-28T03:52:08.864Z,2.92
2022-07-28T03:57:12.762Z,2.88
2022-07-28T04:02:17.035Z,2.10
2022-07-28T04:07:21.791Z,2.85
2022-07-28T04:12:25.141Z,2.50
2022-07-28T04:17:28.548Z,2.50
2022-07-28T04:22:33.247Z,2.65
2022-07-28T04:27:37.422Z,2.67
2022-07-28T04:32:41.278Z,2.95
2022-07-28T04:37:46.457Z,3.17
2022-07-28T04:42:50.451Z,3.00
2022-07-28T04:47:53.806Z,2.50
2022-07-28T04:52:59.001Z,2.38
2022-07-28T04:58:02.383Z,2.15
2022-07-28T05:03:07.152Z,3.17
2022-07-28T05:08:11.812Z,2.22
2022-07-28T05:13:15.573Z,4.78
2022-07-28T05:18:18.959Z,2.80
2022-07-28T05:23:23.714Z,3.10
2022-07-28T05:28:27.139Z,2.80
2022-07-28T05:33:32.132Z,2.30
2022-07-28T05:38:36.885Z,2.67
2022-07-28T05:43:40.214Z,2.58
2022-07-28T05:48:43.627Z,2.30
2022-07-28T05:53:48.424Z,3.88
2022-07-28T05:58:53.056Z,2.10
2022-07-28T06:04:26.162Z,1.90
2022-07-28T06:09:21.153Z,2.00
2022-07-28T06:14:24.487Z,3.80
2022-07-28T06:19:27.982Z,1.90
2022-07-28T06:24:42.397Z,2.28
2022-07-28T06:29:50.873Z,1.98
2022-07-28T06:34:54.639Z,2.10
2022-07-28T06:39:59.632Z,2.00
2022-07-28T06:45:03.016Z,2.20
2022-07-28T06:50:08.160Z,2.17
2022-07-28T06:55:34.418Z,1.98
2022-07-28T07:00:39.488Z,1.95
2022-07-28T07:05:43.316Z,1.80
2022-07-28T07:10:48.006Z,1.58
2022-07-28T07:15:51.483Z,1.75
2022-07-28T07:20:55.710Z,1.35
2022-07-28T07:26:00.464Z,1.75
2022-07-28T07:31:04.108Z,1.40
2022-07-28T07:36:08.021Z,1.17
2022-07-28T07:41:13.209Z,1.45
2022-07-28T07:46:17.471Z,1.17
2022-07-28T07:51:21.119Z,1.20
2022-07-28T07:56:25.803Z,1.27
2022-07-28T08:01:29.176Z,1.70
2022-07-28T08:06:32.657Z,1.20
2022-07-28T08:11:40.550Z,1.20
2022-07-28T08:16:44.020Z,1.50
2022-07-28T08:21:47.512Z,1.50
2022-07-28T08:26:52.720Z,2.00
2022-07-28T08:31:56.074Z,1.17
2022-07-28T08:36:59.907Z,1.70
2022-07-28T08:42:07.206Z,1.17
2022-07-28T08:47:12.329Z,1.38
2022-07-28T08:52:15.864Z,2.10
2022-07-28T08:57:27.037Z,1.30
2022-07-28T09:02:33.966Z,1.77
2022-07-28T09:07:41.671Z,2.30
2022-07-28T09:12:46.670Z,1.48
2022-07-28T09:17:54.487Z,1.55
2022-07-28T09:23:00.923Z,1.20
2022-07-28T09:28:11.209Z,1.52
2022-07-28T09:33:41.200Z,1.55
2022-07-28T09:38:42.279Z,1.27
2022-07-28T09:43:52.512Z,1.27
2022-07-28T09:48:59.906Z,1.67
2022-07-28T09:54:12.423Z,1.85
2022-07-28T09:59:18.647Z,1.45
2022-07-28T10:04:33.852Z,1.70
2022-07-28T10:09:37.754Z,1.73
2022-07-28T10:14:42.464Z,1.45
2022-07-28T10:19:45.796Z,1.33
2022-07-28T10:24:52.877Z,1.60
2022-07-28T10:30:00.035Z,1.77
2022-07-28T10:35:06.357Z,1.77
2022-07-28T10:40:12.695Z,1.45
2022-07-28T10:45:18.120Z,2.70
2022-07-28T10:50:22.372Z,1.50
2022-07-28T10:55:34.919Z,1.65
2022-07-28T11:00:55.285Z,1.73
2022-07-28T11:05:59.803Z,1.85
2022-07-28T11:11:07.600Z,1.27
2022-07-28T11:16:24.926Z,1.50
2022-07-28T11:21:30.976Z,1.80
2022-07-28T11:26:46.035Z,1.90
2022-07-28T11:32:05.116Z,2.10
2022-07-28T11:37:10.276Z,1.77
2022-07-28T11:42:26.157Z,1.80
2022-07-28T11:47:31.883Z,1.70
2022-07-28T11:52:35.231Z,2.50
2022-07-28T11:57:44.150Z,2.38
2022-07-28T12:02:49.135Z,2.70
2022-07-28T12:07:53.749Z,2.05
2022-07-28T12:12:58.949Z,2.33
2022-07-28T12:18:04.099Z,1.92
2022-07-28T12:23:10.397Z,2.72
2022-07-28T12:28:15.778Z,2.85
2022-07-28T12:33:27.463Z,2.28
2022-07-28T12:38:33.162Z,2.08
2022-07-28T12:43:36.723Z,2.38
2022-07-28T12:48:42.609Z,2.10
2022-07-28T12:53:52.002Z,2.47
2022-07-28T12:59:06.323Z,2.30
2022-07-28T13:04:11.237Z,2.20
2022-07-28T13:09:23.399Z,2.10
2022-07-28T13:14:42.494Z,2.15
2022-07-28T13:19:48.635Z,2.08
2022-07-28T13:24:51.989Z,1.90
2022-07-28T13:29:56.398Z,2.00
2022-07-28T13:35:03.206Z,2.10
2022-07-28T13:40:07.629Z,2.38
2022-07-28T13:45:11.579Z,2.25
2022-07-28T13:50:22.097Z,2.40
2022-07-28T13:55:27.511Z,2.10
2022-07-28T14:00:30.978Z,1.90
2022-07-28T14:05:36.118Z,2.35
2022-07-28T14:10:40.026Z,2.33
2022-07-28T14:15:43.515Z,2.13
2022-07-28T14:20:48.288Z,5.63
2022-07-28T14:25:52.194Z,3.63
2022-07-28T14:30:55.728Z,1.75
2022-07-28T14:36:00.559Z,2.28
2022-07-28T14:41:03.975Z,1.98
2022-07-28T14:46:16.204Z,2.10
2022-07-28T14:51:25.616Z,1.90
2022-07-28T14:56:28.993Z,3.20
2022-07-28T15:01:35.697Z,1.83
2022-07-28T15:06:41.126Z,2.20
2022-07-28T15:11:46.382Z,2.00
2022-07-28T15:16:50.137Z,2.63
2022-07-28T15:21:54.861Z,1.98
2022-07-28T15:26:58.311Z,2.08
2022-07-28T15:32:02.013Z,2.17
2022-07-28T15:37:09.226Z,2.53
2022-07-28T15:42:13.133Z,2.38
2022-07-28T15:47:16.668Z,2.97
2022-07-28T15:52:21.402Z,3.63
2022-07-28T15:57:24.736Z,2.97
2022-07-28T16:02:41.121Z,1.90
2022-07-28T16:07:46.076Z,2.53
2022-07-28T16:12:49.437Z,2.50
2022-07-28T16:17:52.833Z,4.35
2022-07-28T16:22:58.486Z,3.00
2022-07-28T16:28:03.611Z,2.17
2022-07-28T16:33:08.049Z,2.45
2022-07-28T16:38:13.058Z,2.40
2022-07-28T16:43:16.712Z,1.90
2022-07-28T16:48:20.861Z,2.80
2022-07-28T16:53:25.573Z,2.28
2022-07-28T16:58:29.280Z,2.00
2022-07-28T17:03:32.723Z,2.45
2022-07-28T17:08:37.779Z,3.00
2022-07-28T17:13:45.166Z,2.28
2022-07-28T17:18:49.092Z,2.25
2022-07-28T17:23:54.127Z,1.83
2022-07-28T17:28:58.427Z,2.72
2022-07-28T17:34:01.898Z,2.55
2022-07-28T17:39:08.059Z,2.10
2022-07-28T17:44:11.571Z,1.90
2022-07-28T17:49:15.075Z,2.33
2022-07-28T17:54:23.590Z,2.08
2022-07-28T17:59:34.314Z,5.38
2022-07-28T18:04:51.287Z,1.70
2022-07-28T18:09:55.998Z,3.35
2022-07-28T18:14:59.533Z,3.00
2022-07-28T18:20:03.180Z,2.10
2022-07-28T18:25:08.989Z,2.28
2022-07-28T18:30:14.335Z,2.78
2022-07-28T18:35:18.430Z,2.63
2022-07-28T18:40:24.058Z,2.72
2022-07-28T18:45:27.573Z,2.10
2022-07-28T18:50:31.847Z,2.85
2022-07-28T18:55:36.899Z,3.00
2022-07-28T19:00:40.472Z,2.63
2022-07-28T19:05:46.218Z,2.60
2022-07-28T19:10:51.698Z,2.22
2022-07-28T19:15:55.250Z,2.80
2022-07-28T19:20:58.900Z,2.80
2022-07-28T19:26:03.912Z,2.22
2022-07-28T19:31:10.187Z,3.33
2022-07-28T19:36:14.831Z,3.28
2022-07-28T19:41:20.005Z,3.33
2022-07-28T19:46:24.337Z,4.05
2022-07-28T19:51:29.766Z,3.00
2022-07-28T19:56:34.855Z,9.57
2022-07-28T20:01:45.977Z,3.33
2022-07-28T20:06:55.636Z,3.08
2022-07-28T20:12:00.583Z,4.45
2022-07-28T20:17:04.303Z,4.38
2022-07-28T20:22:08.015Z,3.47
2022-07-28T20:27:12.763Z,5.20
2022-07-28T20:32:16.145Z,4.10
2022-07-28T20:37:35.665Z,4.20
2022-07-28T20:42:41.950Z,3.92
2022-07-28T20:47:45.761Z,4.85
2022-07-28T20:52:49.310Z,3.80
2022-07-28T20:57:55.985Z,4.45
2022-07-28T21:03:00.580Z,3.50
2022-07-28T21:08:09.136Z,3.97
2022-07-28T21:13:15.050Z,3.67
2022-07-28T21:18:18.477Z,4.05
2022-07-28T21:23:21.873Z,4.60
2022-07-28T21:28:44.380Z,4.25
2022-07-28T21:33:47.751Z,3.80
2022-07-28T21:38:51.101Z,4.43
2022-07-28T21:44:00.817Z,4.45
2022-07-28T21:49:07.152Z,4.00
2022-07-28T21:54:10.508Z,4.93
2022-07-28T21:59:15.215Z,4.35
2022-07-28T22:04:19.559Z,4.78
2022-07-28T22:09:23.445Z,4.13
2022-07-28T22:14:32.298Z,4.47
2022-07-28T22:19:35.577Z,4.75
2022-07-28T22:24:38.892Z,4.30
2022-07-28T22:29:50.021Z,4.72
2022-07-28T22:34:55.564Z,4.30
2022-07-28T22:39:59.227Z,4.63
2022-07-28T22:45:04.008Z,4.50
2022-07-28T22:50:09.206Z,4.38
2022-07-28T23:00:36.238Z,4.65
2022-07-28T23:05:40.105Z,4.55
2022-07-28T23:10:43.417Z,5.18
2022-07-28T23:15:48.151Z,4.25
2022-07-28T23:20:51.485Z,4.30
2022-07-28T23:25:54.852Z,5.07
2022-07-28T23:30:59.628Z,4.20
2022-07-28T23:36:02.922Z,4.03
2022-07-28T23:41:11.530Z,3.92
2022-07-28T23:46:16.287Z,4.28
2022-07-28T23:51:21.302Z,4.20
2022-07-28T23:56:24.818Z,4.22
